sensor_id;sensor_type;location;lat;lon;timestamp;pressure;altitude;pressure_sealevel;temperature;humidity
6668;BME280;3370;47.712;9.082;2023-06-22T00:01:59;96916.59;;;20.02;96.14
6668;BME280;3370;47.712;9.082;2023-06-22T00:04:25;96911.75;;;19.97;96.59
6668;BME280;3370;47.712;9.082;2023-06-22T00:06:51;96922.19;;;19.97;97.11
6668;BME280;3370;47.712;9.082;2023-06-22T00:09:17;96912.44;;;19.99;97.27
6668;BME280;3370;47.712;9.082;2023-06-22T00:11:42;96922.19;;;19.97;97.72
6668;BME280;3370;47.712;9.082;2023-06-22T00:14:08;96915.72;;;19.91;98.58
6668;BME280;3370;47.712;9.082;2023-06-22T00:16:34;96915.16;;;19.88;99.32
6668;BME280;3370;47.712;9.082;2023-06-22T00:19:00;96913.94;;;19.92;99.03
6668;BME280;3370;47.712;9.082;2023-06-22T00:21:28;96907.06;;;19.91;98.40
6668;BME280;3370;47.712;9.082;2023-06-22T00:23:53;96910.06;;;19.86;99.41
6668;BME280;3370;47.712;9.082;2023-06-22T00:26:20;96910.34;;;19.83;99.09
6668;BME280;3370;47.712;9.082;2023-06-22T00:28:47;96911.53;;;19.79;99.34
6668;BME280;3370;47.712;9.082;2023-06-22T00:31:13;96906.44;;;19.78;99.44
6668;BME280;3370;47.712;9.082;2023-06-22T00:33:38;96900.97;;;19.81;99.14
6668;BME280;3370;47.712;9.082;2023-06-22T00:36:05;96896.72;;;19.80;99.14
6668;BME280;3370;47.712;9.082;2023-06-22T00:38:33;96886.03;;;19.83;99.17
6668;BME280;3370;47.712;9.082;2023-06-22T00:40:59;96897.44;;;19.82;98.15
6668;BME280;3370;47.712;9.082;2023-06-22T00:43:25;96904.03;;;19.86;98.81
6668;BME280;3370;47.712;9.082;2023-06-22T00:45:51;96905.81;;;19.64;99.85
6668;BME280;3370;47.712;9.082;2023-06-22T00:48:17;96902.19;;;19.56;100.00
6668;BME280;3370;47.712;9.082;2023-06-22T00:50:43;96908.63;;;19.51;100.00
6668;BME280;3370;47.712;9.082;2023-06-22T00:53:09;96912.91;;;19.52;100.00
6668;BME280;3370;47.712;9.082;2023-06-22T00:55:42;96908.50;;;19.53;100.00
6668;BME280;3370;47.712;9.082;2023-06-22T00:58:13;96901.63;;;19.52;100.00
6668;BME280;3370;47.712;9.082;2023-06-22T01:00:40;96906.59;;;19.55;100.00
6668;BME280;3370;47.712;9.082;2023-06-22T01:03:07;96906.00;;;19.51;100.00
6668;BME280;3370;47.712;9.082;2023-06-22T01:05:37;96904.34;;;19.50;100.00
6668;BME280;3370;47.712;9.082;2023-06-22T01:08:35;96915.56;;;19.62;100.00
6668;BME280;3370;47.712;9.082;2023-06-22T01:11:17;96923.25;;;19.64;100.00
6668;BME280;3370;47.712;9.082;2023-06-22T01:16:23;96920.84;;;19.51;100.00
6668;BME280;3370;47.712;9.082;2023-06-22T01:18:52;96915.88;;;19.48;100.00
6668;BME280;3370;47.712;9.082;2023-06-22T01:21:22;96919.44;;;19.47;100.00
6668;BME280;3370;47.712;9.082;2023-06-22T01:24:18;96921.09;;;19.48;100.00
6668;BME280;3370;47.712;9.082;2023-06-22T01:27:24;96927.25;;;19.47;100.00
6668;BME280;3370;47.712;9.082;2023-06-22T01:29:57;96935.06;;;19.47;100.00
6668;BME280;3370;47.712;9.082;2023-06-22T01:32:34;96938.53;;;19.47;100.00
6668;BME280;3370;47.712;9.082;2023-06-22T01:35:04;96947.41;;;19.45;100.00
6668;BME280;3370;47.712;9.082;2023-06-22T01:37:33;96941.31;;;19.34;100.00
6668;BME280;3370;47.712;9.082;2023-06-22T01:40:01;96934.69;;;19.30;100.00
6668;BME280;3370;47.712;9.082;2023-06-22T01:42:27;96936.34;;;19.31;100.00
6668;BME280;3370;47.712;9.082;2023-06-22T01:44:54;96944.22;;;19.41;100.00
6668;BME280;3370;47.712;9.082;2023-06-22T01:47:22;96943.63;;;19.49;100.00
6668;BME280;3370;47.712;9.082;2023-06-22T01:49:49;96938.13;;;19.52;100.00
6668;BME280;3370;47.712;9.082;2023-06-22T01:52:20;96952.91;;;19.42;100.00
6668;BME280;3370;47.712;9.082;2023-06-22T01:54:49;96951.53;;;19.26;100.00
6668;BME280;3370;47.712;9.082;2023-06-22T01:57:15;96953.22;;;19.27;100.00
6668;BME280;3370;47.712;9.082;2023-06-22T02:02:18;96959.41;;;19.15;100.00
6668;BME280;3370;47.712;9.082;2023-06-22T02:04:51;96974.41;;;19.23;100.00
6668;BME280;3370;47.712;9.082;2023-06-22T02:07:23;96969.03;;;19.14;100.00
6668;BME280;3370;47.712;9.082;2023-06-22T02:09:51;96960.63;;;19.11;100.00
6668;BME280;3370;47.712;9.082;2023-06-22T02:12:23;96953.38;;;19.14;100.00
6668;BME280;3370;47.712;9.082;2023-06-22T02:14:51;96961.28;;;19.24;100.00
6668;BME280;3370;47.712;9.082;2023-06-22T02:17:18;96953.81;;;19.20;100.00
6668;BME280;3370;47.712;9.082;2023-06-22T02:19:43;96953.38;;;19.14;100.00
6668;BME280;3370;47.712;9.082;2023-06-22T02:22:10;96957.50;;;19.17;100.00
6668;BME280;3370;47.712;9.082;2023-06-22T02:24:35;96961.19;;;19.14;100.00
6668;BME280;3370;47.712;9.082;2023-06-22T02:27:02;96958.06;;;18.88;100.00
6668;BME280;3370;47.712;9.082;2023-06-22T02:29:28;96964.22;;;18.99;100.00
6668;BME280;3370;47.712;9.082;2023-06-22T02:31:54;96967.78;;;18.86;100.00
6668;BME280;3370;47.712;9.082;2023-06-22T02:34:21;96972.03;;;18.76;100.00
6668;BME280;3370;47.712;9.082;2023-06-22T02:36:49;96975.84;;;18.72;100.00
6668;BME280;3370;47.712;9.082;2023-06-22T02:39:23;96967.09;;;18.62;100.00
6668;BME280;3370;47.712;9.082;2023-06-22T02:41:53;96971.81;;;18.79;100.00
6668;BME280;3370;47.712;9.082;2023-06-22T02:44:20;96972.44;;;18.83;100.00
6668;BME280;3370;47.712;9.082;2023-06-22T02:46:47;96978.34;;;18.73;100.00
6668;BME280;3370;47.712;9.082;2023-06-22T02:49:13;96985.09;;;18.65;100.00
6668;BME280;3370;47.712;9.082;2023-06-22T02:51:48;96976.09;;;18.57;100.00
6668;BME280;3370;47.712;9.082;2023-06-22T02:54:14;96969.59;;;18.52;100.00
6668;BME280;3370;47.712;9.082;2023-06-22T02:56:40;96975.75;;;18.51;100.00
6668;BME280;3370;47.712;9.082;2023-06-22T02:59:06;96972.09;;;18.53;100.00
6668;BME280;3370;47.712;9.082;2023-06-22T03:01:32;96965.22;;;18.52;100.00
6668;BME280;3370;47.712;9.082;2023-06-22T03:04:08;96968.78;;;18.51;100.00
6668;BME280;3370;47.712;9.082;2023-06-22T03:06:35;96964.41;;;18.52;100.00
6668;BME280;3370;47.712;9.082;2023-06-22T03:09:03;96962.84;;;18.61;100.00
6668;BME280;3370;47.712;9.082;2023-06-22T03:11:31;96965.66;;;18.69;100.00
6668;BME280;3370;47.712;9.082;2023-06-22T03:13:58;96967.34;;;18.58;100.00
6668;BME280;3370;47.712;9.082;2023-06-22T03:16:24;96964.28;;;18.53;100.00
6668;BME280;3370;47.712;9.082;2023-06-22T03:18:50;96956.63;;;18.41;100.00
6668;BME280;3370;47.712;9.082;2023-06-22T03:21:16;96958.25;;;18.42;100.00
6668;BME280;3370;47.712;9.082;2023-06-22T03:23:42;96967.34;;;18.47;100.00
6668;BME280;3370;47.712;9.082;2023-06-22T03:26:09;96964.88;;;18.34;100.00
6668;BME280;3370;47.712;9.082;2023-06-22T03:28:35;96968.78;;;18.29;100.00
6668;BME280;3370;47.712;9.082;2023-06-22T03:31:01;96964.28;;;18.31;100.00
6668;BME280;3370;47.712;9.082;2023-06-22T03:33:27;96960.53;;;18.35;100.00
6668;BME280;3370;47.712;9.082;2023-06-22T03:35:52;96957.91;;;18.35;100.00
6668;BME280;3370;47.712;9.082;2023-06-22T03:38:19;96955.91;;;18.38;100.00
6668;BME280;3370;47.712;9.082;2023-06-22T03:40:45;96957.44;;;18.41;100.00
6668;BME280;3370;47.712;9.082;2023-06-22T03:43:11;96960.50;;;18.46;100.00
6668;BME280;3370;47.712;9.082;2023-06-22T03:45:36;96962.16;;;18.47;100.00
6668;BME280;3370;47.712;9.082;2023-06-22T03:48:03;96969.03;;;18.48;100.00
6668;BME280;3370;47.712;9.082;2023-06-22T03:50:28;96963.81;;;18.48;100.00
6668;BME280;3370;47.712;9.082;2023-06-22T03:52:55;96961.31;;;18.47;100.00
6668;BME280;3370;47.712;9.082;2023-06-22T03:55:21;96956.00;;;18.48;100.00
6668;BME280;3370;47.712;9.082;2023-06-22T03:57:47;96962.63;;;18.64;100.00
6668;BME280;3370;47.712;9.082;2023-06-22T04:00:14;96953.75;;;18.55;100.00
6668;BME280;3370;47.712;9.082;2023-06-22T04:02:41;96951.72;;;18.47;100.00
6668;BME280;3370;47.712;9.082;2023-06-22T04:05:09;96950.09;;;18.46;100.00
6668;BME280;3370;47.712;9.082;2023-06-22T04:07:35;96950.22;;;18.45;100.00
6668;BME280;3370;47.712;9.082;2023-06-22T04:10:04;96957.66;;;18.61;100.00
6668;BME280;3370;47.712;9.082;2023-06-22T04:12:30;96975.16;;;18.81;100.00
6668;BME280;3370;47.712;9.082;2023-06-22T04:14:56;96951.75;;;18.58;100.00
6668;BME280;3370;47.712;9.082;2023-06-22T04:17:21;96934.25;;;18.49;100.00
6668;BME280;3370;47.712;9.082;2023-06-22T04:19:51;96963.69;;;18.61;100.00
6668;BME280;3370;47.712;9.082;2023-06-22T04:22:17;96954.09;;;18.50;100.00
6668;BME280;3370;47.712;9.082;2023-06-22T04:24:44;96926.44;;;18.38;100.00
6668;BME280;3370;47.712;9.082;2023-06-22T04:27:09;96940.16;;;18.51;100.00
6668;BME280;3370;47.712;9.082;2023-06-22T04:29:35;96957.66;;;18.38;100.00
6668;BME280;3370;47.712;9.082;2023-06-22T04:32:02;96921.47;;;18.35;100.00
6668;BME280;3370;47.712;9.082;2023-06-22T04:34:31;96894.75;;;18.33;100.00
6668;BME280;3370;47.712;9.082;2023-06-22T04:36:57;96930.81;;;18.37;100.00
6668;BME280;3370;47.712;9.082;2023-06-22T04:39:23;96956.59;;;18.18;100.00
6668;BME280;3370;47.712;9.082;2023-06-22T04:41:49;96911.91;;;18.24;100.00
6668;BME280;3370;47.712;9.082;2023-06-22T04:44:19;96899.00;;;18.34;100.00
6668;BME280;3370;47.712;9.082;2023-06-22T04:46:57;96957.06;;;18.34;100.00
6668;BME280;3370;47.712;9.082;2023-06-22T04:49:27;96961.34;;;18.24;100.00
6668;BME280;3370;47.712;9.082;2023-06-22T04:52:04;96907.19;;;18.29;100.00
6668;BME280;3370;47.712;9.082;2023-06-22T04:54:31;96909.16;;;18.37;100.00
6668;BME280;3370;47.712;9.082;2023-06-22T04:57:05;96972.47;;;18.37;100.00
6668;BME280;3370;47.712;9.082;2023-06-22T04:59:37;96966.44;;;18.37;100.00
6668;BME280;3370;47.712;9.082;2023-06-22T05:02:05;96905.03;;;18.46;100.00
6668;BME280;3370;47.712;9.082;2023-06-22T05:04:32;96903.19;;;18.57;100.00
6668;BME280;3370;47.712;9.082;2023-06-22T05:06:59;96962.25;;;18.68;100.00
6668;BME280;3370;47.712;9.082;2023-06-22T05:09:26;96957.72;;;18.70;100.00
6668;BME280;3370;47.712;9.082;2023-06-22T05:11:52;96908.81;;;18.74;100.00
6668;BME280;3370;47.712;9.082;2023-06-22T05:14:18;96920.66;;;18.89;100.00
6668;BME280;3370;47.712;9.082;2023-06-22T05:16:45;96949.44;;;18.88;100.00
6668;BME280;3370;47.712;9.082;2023-06-22T05:19:11;96953.53;;;19.02;100.00
6668;BME280;3370;47.712;9.082;2023-06-22T05:21:37;96925.31;;;19.07;100.00
6668;BME280;3370;47.712;9.082;2023-06-22T05:24:04;96910.25;;;19.10;100.00
6668;BME280;3370;47.712;9.082;2023-06-22T05:26:32;96938.31;;;19.18;100.00
6668;BME280;3370;47.712;9.082;2023-06-22T05:29:00;96941.00;;;19.28;100.00
6668;BME280;3370;47.712;9.082;2023-06-22T05:31:27;96909.59;;;19.29;100.00
6668;BME280;3370;47.712;9.082;2023-06-22T05:33:54;96898.63;;;19.35;100.00
6668;BME280;3370;47.712;9.082;2023-06-22T05:36:21;96916.13;;;19.45;100.00
6668;BME280;3370;47.712;9.082;2023-06-22T05:38:56;96925.72;;;19.44;100.00
6668;BME280;3370;47.712;9.082;2023-06-22T05:41:22;96919.38;;;19.58;100.00
6668;BME280;3370;47.712;9.082;2023-06-22T05:43:48;96901.69;;;19.62;100.00
6668;BME280;3370;47.712;9.082;2023-06-22T05:46:14;96903.31;;;19.63;100.00
6668;BME280;3370;47.712;9.082;2023-06-22T05:48:39;96922.72;;;19.70;100.00
6668;BME280;3370;47.712;9.082;2023-06-22T05:51:05;96924.25;;;19.72;100.00
6668;BME280;3370;47.712;9.082;2023-06-22T05:53:31;96915.25;;;19.77;100.00
6668;BME280;3370;47.712;9.082;2023-06-22T05:55:56;96917.22;;;19.94;100.00
6668;BME280;3370;47.712;9.082;2023-06-22T05:58:22;96920.56;;;19.96;100.00
6668;BME280;3370;47.712;9.082;2023-06-22T06:00:48;96922.50;;;20.04;100.00
6668;BME280;3370;47.712;9.082;2023-06-22T06:03:14;96918.81;;;20.06;100.00
6668;BME280;3370;47.712;9.082;2023-06-22T06:05:42;96922.72;;;20.22;100.00
6668;BME280;3370;47.712;9.082;2023-06-22T06:08:08;96918.44;;;20.21;100.00
6668;BME280;3370;47.712;9.082;2023-06-22T06:10:36;96921.50;;;20.26;100.00
6668;BME280;3370;47.712;9.082;2023-06-22T06:13:02;96922.75;;;20.32;100.00
6668;BME280;3370;47.712;9.082;2023-06-22T06:15:30;96923.47;;;20.43;100.00
6668;BME280;3370;47.712;9.082;2023-06-22T06:17:56;96918.25;;;20.43;100.00
6668;BME280;3370;47.712;9.082;2023-06-22T06:20:24;96920.88;;;20.53;100.00
6668;BME280;3370;47.712;9.082;2023-06-22T06:22:50;96919.50;;;20.59;99.54
6668;BME280;3370;47.712;9.082;2023-06-22T06:25:16;96917.63;;;20.80;99.02
6668;BME280;3370;47.712;9.082;2023-06-22T06:27:47;96916.94;;;20.88;99.11
6668;BME280;3370;47.712;9.082;2023-06-22T06:30:16;96908.69;;;20.73;100.00
6668;BME280;3370;47.712;9.082;2023-06-22T06:32:43;96926.16;;;20.82;100.00
6668;BME280;3370;47.712;9.082;2023-06-22T06:35:11;96918.59;;;20.99;100.00
6668;BME280;3370;47.712;9.082;2023-06-22T06:37:40;96925.47;;;20.80;100.00
6668;BME280;3370;47.712;9.082;2023-06-22T06:40:08;96924.81;;;20.98;99.29
6668;BME280;3370;47.712;9.082;2023-06-22T06:42:37;96919.16;;;20.93;100.00
6668;BME280;3370;47.712;9.082;2023-06-22T06:45:05;96923.16;;;20.97;99.44
6668;BME280;3370;47.712;9.082;2023-06-22T06:47:31;96932.66;;;21.08;100.00
6668;BME280;3370;47.712;9.082;2023-06-22T06:49:57;96929.06;;;20.89;100.00
6668;BME280;3370;47.712;9.082;2023-06-22T06:52:23;96927.16;;;20.81;99.70
6668;BME280;3370;47.712;9.082;2023-06-22T06:54:48;96931.41;;;20.82;100.00
6668;BME280;3370;47.712;9.082;2023-06-22T06:57:14;96928.78;;;20.82;100.00
6668;BME280;3370;47.712;9.082;2023-06-22T06:59:40;96936.91;;;20.99;100.00
6668;BME280;3370;47.712;9.082;2023-06-22T07:02:07;96934.59;;;20.96;100.00
6668;BME280;3370;47.712;9.082;2023-06-22T07:04:33;96934.88;;;21.12;97.64
6668;BME280;3370;47.712;9.082;2023-06-22T07:07:01;96935.41;;;21.25;98.18
6668;BME280;3370;47.712;9.082;2023-06-22T07:09:27;96939.53;;;21.18;99.73
6668;BME280;3370;47.712;9.082;2023-06-22T07:11:53;96936.50;;;21.23;97.14
6668;BME280;3370;47.712;9.082;2023-06-22T07:14:18;96932.09;;;21.14;96.45
6668;BME280;3370;47.712;9.082;2023-06-22T07:16:44;96938.69;;;21.28;97.38
6668;BME280;3370;47.712;9.082;2023-06-22T07:19:11;96937.91;;;21.47;98.96
6668;BME280;3370;47.712;9.082;2023-06-22T07:21:38;96938.72;;;21.47;95.86
6668;BME280;3370;47.712;9.082;2023-06-22T07:24:05;96932.34;;;21.40;96.07
6668;BME280;3370;47.712;9.082;2023-06-22T07:26:32;96923.25;;;21.44;97.40
6668;BME280;3370;47.712;9.082;2023-06-22T07:28:57;96916.41;;;21.53;96.81
6668;BME280;3370;47.712;9.082;2023-06-22T07:31:25;96914.44;;;21.64;97.14
6668;BME280;3370;47.712;9.082;2023-06-22T07:33:51;96914.38;;;21.84;94.95
6668;BME280;3370;47.712;9.082;2023-06-22T07:36:17;96905.31;;;21.78;92.33
6668;BME280;3370;47.712;9.082;2023-06-22T07:38:44;96900.34;;;21.75;92.33
6668;BME280;3370;47.712;9.082;2023-06-22T07:41:09;96904.16;;;21.91;92.35
6668;BME280;3370;47.712;9.082;2023-06-22T07:43:35;96897.13;;;22.01;92.29
6668;BME280;3370;47.712;9.082;2023-06-22T07:46:05;96901.66;;;21.99;93.54
6668;BME280;3370;47.712;9.082;2023-06-22T07:48:31;96909.34;;;22.10;89.29
6668;BME280;3370;47.712;9.082;2023-06-22T07:50:57;96917.53;;;22.25;89.86
6668;BME280;3370;47.712;9.082;2023-06-22T07:53:23;96918.25;;;22.17;87.88
6668;BME280;3370;47.712;9.082;2023-06-22T07:55:50;96920.84;;;22.27;85.60
6668;BME280;3370;47.712;9.082;2023-06-22T07:58:15;96943.56;;;22.36;89.10
6668;BME280;3370;47.712;9.082;2023-06-22T08:00:44;96975.44;;;22.32;89.43
6668;BME280;3370;47.712;9.082;2023-06-22T08:03:10;97000.66;;;22.23;90.32
6668;BME280;3370;47.712;9.082;2023-06-22T08:05:35;97045.34;;;22.12;91.97
6668;BME280;3370;47.712;9.082;2023-06-22T08:08:01;97059.00;;;21.86;95.92
6668;BME280;3370;47.712;9.082;2023-06-22T08:10:27;97032.84;;;21.86;92.40
6668;BME280;3370;47.712;9.082;2023-06-22T08:12:53;97016.88;;;21.89;92.22
6668;BME280;3370;47.712;9.082;2023-06-22T08:15:19;97015.91;;;21.90;91.72
6668;BME280;3370;47.712;9.082;2023-06-22T08:17:45;97014.31;;;22.17;92.12
6668;BME280;3370;47.712;9.082;2023-06-22T08:20:12;97032.38;;;22.20;91.31
6668;BME280;3370;47.712;9.082;2023-06-22T08:22:39;97032.75;;;22.25;89.95
6668;BME280;3370;47.712;9.082;2023-06-22T08:25:06;97020.63;;;22.24;91.27
6668;BME280;3370;47.712;9.082;2023-06-22T08:27:32;97034.44;;;22.26;90.92
6668;BME280;3370;47.712;9.082;2023-06-22T08:30:01;97038.72;;;22.27;90.59
6668;BME280;3370;47.712;9.082;2023-06-22T08:32:30;97038.66;;;22.37;90.02
6668;BME280;3370;47.712;9.082;2023-06-22T08:34:58;97024.75;;;22.36;89.88
6668;BME280;3370;47.712;9.082;2023-06-22T08:37:24;97023.69;;;22.57;91.10
6668;BME280;3370;47.712;9.082;2023-06-22T08:39:59;97030.06;;;22.82;88.33
6668;BME280;3370;47.712;9.082;2023-06-22T08:42:25;97034.81;;;22.96;87.44
6668;BME280;3370;47.712;9.082;2023-06-22T08:44:51;97045.31;;;23.24;87.62
6668;BME280;3370;47.712;9.082;2023-06-22T08:47:18;97056.63;;;23.25;84.62
6668;BME280;3370;47.712;9.082;2023-06-22T08:49:43;97033.56;;;23.46;84.17
6668;BME280;3370;47.712;9.082;2023-06-22T08:52:09;97019.97;;;23.51;81.66
6668;BME280;3370;47.712;9.082;2023-06-22T08:54:35;97033.41;;;23.66;81.04
6668;BME280;3370;47.712;9.082;2023-06-22T08:57:02;97036.19;;;23.82;81.71
6668;BME280;3370;47.712;9.082;2023-06-22T08:59:28;97026.72;;;23.71;81.67
6668;BME280;3370;47.712;9.082;2023-06-22T09:01:54;97015.03;;;23.66;80.77
6668;BME280;3370;47.712;9.082;2023-06-22T09:04:19;97010.59;;;23.84;79.64
6668;BME280;3370;47.712;9.082;2023-06-22T09:06:48;97002.75;;;24.19;79.07
6668;BME280;3370;47.712;9.082;2023-06-22T09:09:16;96994.81;;;24.37;75.69
6668;BME280;3370;47.712;9.082;2023-06-22T09:11:42;96998.09;;;24.39;76.75
6668;BME280;3370;47.712;9.082;2023-06-22T09:14:09;96978.03;;;24.29;77.39
6668;BME280;3370;47.712;9.082;2023-06-22T09:16:35;96969.97;;;24.31;76.20
6668;BME280;3370;47.712;9.082;2023-06-22T09:19:01;96969.38;;;24.45;74.62
6668;BME280;3370;47.712;9.082;2023-06-22T09:21:26;96973.56;;;24.56;79.72
6668;BME280;3370;47.712;9.082;2023-06-22T09:23:52;96976.03;;;24.58;77.23
6668;BME280;3370;47.712;9.082;2023-06-22T09:26:19;96968.34;;;24.73;77.42
6668;BME280;3370;47.712;9.082;2023-06-22T09:28:45;96970.66;;;24.67;73.99
6668;BME280;3370;47.712;9.082;2023-06-22T09:31:11;96961.59;;;24.70;75.67
6668;BME280;3370;47.712;9.082;2023-06-22T09:33:37;96960.16;;;24.76;74.65
6668;BME280;3370;47.712;9.082;2023-06-22T09:36:06;96944.69;;;24.64;74.28
6668;BME280;3370;47.712;9.082;2023-06-22T09:38:37;96947.50;;;24.79;74.42
6668;BME280;3370;47.712;9.082;2023-06-22T09:41:03;96940.31;;;24.90;76.56
6668;BME280;3370;47.712;9.082;2023-06-22T09:43:31;96934.72;;;25.01;73.17
6668;BME280;3370;47.712;9.082;2023-06-22T09:45:57;96932.94;;;25.10;75.19
6668;BME280;3370;47.712;9.082;2023-06-22T09:48:23;96933.41;;;25.21;75.16
6668;BME280;3370;47.712;9.082;2023-06-22T09:50:49;96930.97;;;25.44;71.92
6668;BME280;3370;47.712;9.082;2023-06-22T09:53:15;96935.88;;;25.72;73.13
6668;BME280;3370;47.712;9.082;2023-06-22T09:55:40;96935.06;;;25.80;70.82
6668;BME280;3370;47.712;9.082;2023-06-22T09:58:06;96925.00;;;25.83;73.34
6668;BME280;3370;47.712;9.082;2023-06-22T10:00:32;96918.41;;;25.96;65.45
6668;BME280;3370;47.712;9.082;2023-06-22T10:02:58;96919.03;;;26.06;66.36
6668;BME280;3370;47.712;9.082;2023-06-22T10:05:23;96918.41;;;25.96;65.97
6668;BME280;3370;47.712;9.082;2023-06-22T10:07:50;96920.03;;;25.89;66.75
6668;BME280;3370;47.712;9.082;2023-06-22T10:10:16;96935.53;;;26.00;67.20
6668;BME280;3370;47.712;9.082;2023-06-22T10:12:55;96931.25;;;26.07;68.22
6668;BME280;3370;47.712;9.082;2023-06-22T10:15:22;96932.31;;;26.21;66.44
6668;BME280;3370;47.712;9.082;2023-06-22T10:17:48;96922.16;;;26.18;68.19
6668;BME280;3370;47.712;9.082;2023-06-22T10:20:14;96917.34;;;26.22;66.56
6668;BME280;3370;47.712;9.082;2023-06-22T10:22:42;96911.06;;;26.31;66.56
6668;BME280;3370;47.712;9.082;2023-06-22T10:25:12;96915.38;;;26.55;64.86
6668;BME280;3370;47.712;9.082;2023-06-22T10:27:39;96916.03;;;26.57;66.66
6668;BME280;3370;47.712;9.082;2023-06-22T10:30:11;96905.56;;;26.72;65.80
6668;BME280;3370;47.712;9.082;2023-06-22T10:32:42;96900.50;;;26.93;66.12
6668;BME280;3370;47.712;9.082;2023-06-22T10:35:09;96889.84;;;27.25;63.40
6668;BME280;3370;47.712;9.082;2023-06-22T10:37:36;96893.13;;;27.50;61.67
6668;BME280;3370;47.712;9.082;2023-06-22T10:40:03;96885.31;;;27.57;64.94
6668;BME280;3370;47.712;9.082;2023-06-22T10:42:29;96873.84;;;27.79;62.42
6668;BME280;3370;47.712;9.082;2023-06-22T10:44:55;96880.16;;;27.93;62.15
6668;BME280;3370;47.712;9.082;2023-06-22T10:47:21;96875.78;;;27.70;60.65
6668;BME280;3370;47.712;9.082;2023-06-22T10:49:46;96889.03;;;27.62;63.20
6668;BME280;3370;47.712;9.082;2023-06-22T10:52:12;96883.31;;;27.73;63.32
6668;BME280;3370;47.712;9.082;2023-06-22T10:54:38;96886.50;;;27.69;63.81
6668;BME280;3370;47.712;9.082;2023-06-22T10:57:04;96885.69;;;27.68;62.86
6668;BME280;3370;47.712;9.082;2023-06-22T10:59:30;96886.78;;;27.74;60.22
6668;BME280;3370;47.712;9.082;2023-06-22T11:01:56;96892.78;;;27.68;59.89
6668;BME280;3370;47.712;9.082;2023-06-22T11:04:23;96895.06;;;27.56;60.61
6668;BME280;3370;47.712;9.082;2023-06-22T11:06:49;96889.50;;;27.66;60.23
6668;BME280;3370;47.712;9.082;2023-06-22T11:09:16;96888.69;;;27.65;62.54
6668;BME280;3370;47.712;9.082;2023-06-22T11:11:51;96884.03;;;27.82;59.66
6668;BME280;3370;47.712;9.082;2023-06-22T11:14:20;96872.16;;;28.01;59.18
6668;BME280;3370;47.712;9.082;2023-06-22T11:16:46;96870.75;;;28.20;59.30
6668;BME280;3370;47.712;9.082;2023-06-22T11:19:12;96882.63;;;27.95;59.76
6668;BME280;3370;47.712;9.082;2023-06-22T11:21:38;96890.06;;;28.21;59.80
6668;BME280;3370;47.712;9.082;2023-06-22T11:24:04;96893.59;;;28.28;60.72
6668;BME280;3370;47.712;9.082;2023-06-22T11:26:30;96892.22;;;27.96;61.61
6668;BME280;3370;47.712;9.082;2023-06-22T11:28:57;96898.13;;;27.98;61.42
6668;BME280;3370;47.712;9.082;2023-06-22T11:31:23;96885.94;;;27.73;60.93
6668;BME280;3370;47.712;9.082;2023-06-22T11:33:49;96893.66;;;27.98;60.80
6668;BME280;3370;47.712;9.082;2023-06-22T11:36:15;96893.28;;;28.01;60.12
6668;BME280;3370;47.712;9.082;2023-06-22T11:38:42;96898.56;;;27.48;60.48
6668;BME280;3370;47.712;9.082;2023-06-22T11:41:09;96905.22;;;27.44;62.84
6668;BME280;3370;47.712;9.082;2023-06-22T11:43:36;96892.72;;;27.61;63.18
6668;BME280;3370;47.712;9.082;2023-06-22T11:46:06;96903.03;;;27.48;62.26
6668;BME280;3370;47.712;9.082;2023-06-22T11:48:31;96898.84;;;27.39;63.02
6668;BME280;3370;47.712;9.082;2023-06-22T11:50:58;96907.66;;;27.08;63.63
6668;BME280;3370;47.712;9.082;2023-06-22T11:53:26;96896.03;;;27.17;64.10
6668;BME280;3370;47.712;9.082;2023-06-22T11:55:52;96897.47;;;27.43;63.78
6668;BME280;3370;47.712;9.082;2023-06-22T11:58:21;96908.81;;;27.28;63.62
6668;BME280;3370;47.712;9.082;2023-06-22T12:00:47;96903.66;;;27.35;61.67
6668;BME280;3370;47.712;9.082;2023-06-22T12:03:13;96904.69;;;27.49;63.62
6668;BME280;3370;47.712;9.082;2023-06-22T12:05:40;96904.47;;;27.35;62.89
6668;BME280;3370;47.712;9.082;2023-06-22T12:08:06;96910.56;;;27.13;63.41
6668;BME280;3370;47.712;9.082;2023-06-22T12:10:32;96901.78;;;27.21;64.81
6668;BME280;3370;47.712;9.082;2023-06-22T12:12:58;96898.84;;;27.39;64.86
6668;BME280;3370;47.712;9.082;2023-06-22T12:15:26;96896.28;;;27.30;64.34
6668;BME280;3370;47.712;9.082;2023-06-22T12:17:52;96897.56;;;27.34;65.31
6668;BME280;3370;47.712;9.082;2023-06-22T12:20:18;96898.03;;;27.38;63.67
6668;BME280;3370;47.712;9.082;2023-06-22T12:22:44;96904.91;;;27.62;64.02
6668;BME280;3370;47.712;9.082;2023-06-22T12:25:10;96889.50;;;27.81;60.87
6668;BME280;3370;47.712;9.082;2023-06-22T12:27:37;96897.59;;;27.64;63.28
6668;BME280;3370;47.712;9.082;2023-06-22T12:30:05;96891.88;;;27.61;64.17
6668;BME280;3370;47.712;9.082;2023-06-22T12:32:31;96899.13;;;27.44;64.09
6668;BME280;3370;47.712;9.082;2023-06-22T12:34:57;96887.50;;;27.53;63.87
6668;BME280;3370;47.712;9.082;2023-06-22T12:37:23;96880.84;;;27.57;64.27
6668;BME280;3370;47.712;9.082;2023-06-22T12:39:49;96890.06;;;27.76;62.03
6668;BME280;3370;47.712;9.082;2023-06-22T12:42:16;96884.22;;;27.81;64.68
6668;BME280;3370;47.712;9.082;2023-06-22T12:44:42;96882.03;;;27.84;65.31
6668;BME280;3370;47.712;9.082;2023-06-22T12:47:08;96871.75;;;28.04;63.23
6668;BME280;3370;47.712;9.082;2023-06-22T12:49:35;96860.75;;;28.37;65.78
6668;BME280;3370;47.712;9.082;2023-06-22T12:52:02;96867.03;;;28.51;63.05
6668;BME280;3370;47.712;9.082;2023-06-22T12:54:27;96878.47;;;28.37;63.66
6668;BME280;3370;47.712;9.082;2023-06-22T12:56:56;96872.16;;;28.01;63.78
6668;BME280;3370;47.712;9.082;2023-06-22T12:59:22;96875.88;;;28.07;62.70
6668;BME280;3370;47.712;9.082;2023-06-22T13:01:48;96877.78;;;27.98;65.87
6668;BME280;3370;47.712;9.082;2023-06-22T13:04:14;96876.69;;;27.78;64.65
6668;BME280;3370;47.712;9.082;2023-06-22T13:06:47;96876.50;;;28.24;66.28
6668;BME280;3370;47.712;9.082;2023-06-22T13:09:15;96875.91;;;28.43;65.14
6668;BME280;3370;47.712;9.082;2023-06-22T13:11:42;96872.44;;;28.58;61.65
6668;BME280;3370;47.712;9.082;2023-06-22T13:14:08;96868.91;;;28.72;60.81
6668;BME280;3370;47.712;9.082;2023-06-22T13:16:34;96855.94;;;28.77;61.91
6668;BME280;3370;47.712;9.082;2023-06-22T13:18:59;96848.66;;;29.29;60.70
6668;BME280;3370;47.712;9.082;2023-06-22T13:21:25;96850.38;;;29.72;57.33
6668;BME280;3370;47.712;9.082;2023-06-22T13:23:51;96859.06;;;29.87;55.92